Time;durP1;ratioP1;P1;durP2;ratioP2;P2;SDS_P1;SDS_P2;PMS_P1;PMS_P2;Temp;Humidity;BMP_temperature;BMP_pressure;BME280_temperature;BME280_humidity;BME280_pressure;Samples;Min_cycle;Max_cycle;Signal;HPM_P1;HPM_P2
2022/04/05 00:01:08;;;;;;;8.4;3.8;;;;;;;;;;;;;
2022/04/05 00:03:34;;;;;;;4.7;3.9;;;;;;;;;;;;;
2022/04/05 00:06:02;;;;;;;4.3;3.6;;;;;;;;;;;;;
2022/04/05 00:08:27;;;;;;;6.3;3.7;;;;;;;;;;;;;
2022/04/05 00:10:52;;;;;;;5.4;4.1;;;;;;;;;;;;;
2022/04/05 00:13:18;;;;;;;4;3.3;;;;;;;;;;;;;
2022/04/05 00:15:43;;;;;;;4.5;3.3;;;;;;;;;;;;;
2022/04/05 00:18:09;;;;;;;3.8;3.2;;;;;;;;;;;;;
2022/04/05 00:20:34;;;;;;;3.6;3;;;;;;;;;;;;;
2022/04/05 00:23:00;;;;;;;3.8;3.1;;;;;;;;;;;;;
2022/04/05 00:25:25;;;;;;;3.9;3;;;;;;;;;;;;;
2022/04/05 00:27:52;;;;;;;3.4;3.1;;;;;;;;;;;;;
2022/04/05 00:30:16;;;;;;;5.2;3.1;;;;;;;;;;;;;
2022/04/05 00:32:43;;;;;;;4.9;3;;;;;;;;;;;;;
2022/04/05 00:35:08;;;;;;;3.5;3.2;;;;;;;;;;;;;
2022/04/05 00:37:36;;;;;;;3.1;2.8;;;;;;;;;;;;;
2022/04/05 00:40:03;;;;;;;4.4;3;;;;;;;;;;;;;
2022/04/05 00:42:34;;;;;;;3.8;3;;;;;;;;;;;;;
2022/04/05 00:45:00;;;;;;;3.5;2.7;;;;;;;;;;;;;
2022/04/05 00:47:24;;;;;;;5.3;3.2;;;;;;;;;;;;;
2022/04/05 00:49:49;;;;;;;3.8;2.9;;;;;;;;;;;;;
2022/04/05 00:52:15;;;;;;;5.3;3.1;;;;;;;;;;;;;
2022/04/05 00:54:40;;;;;;;7;3.7;;;;;;;;;;;;;
2022/04/05 00:57:05;;;;;;;4.3;2.9;;;;;;;;;;;;;
2022/04/05 00:59:30;;;;;;;4.1;2.8;;;;;;;;;;;;;
2022/04/05 01:01:56;;;;;;;3.1;2.8;;;;;;;;;;;;;
2022/04/05 01:04:21;;;;;;;3.9;2.9;;;;;;;;;;;;;
2022/04/05 01:06:47;;;;;;;3.9;3;;;;;;;;;;;;;
2022/04/05 01:09:12;;;;;;;3;2.5;;;;;;;;;;;;;
2022/04/05 01:11:38;;;;;;;3.8;2.7;;;;;;;;;;;;;
2022/04/05 01:14:03;;;;;;;3.1;2.8;;;;;;;;;;;;;
2022/04/05 01:16:29;;;;;;;3.1;2.8;;;;;;;;;;;;;
2022/04/05 01:18:54;;;;;;;2.5;2.3;;;;;;;;;;;;;
2022/04/05 01:21:20;;;;;;;2.6;2.4;;;;;;;;;;;;;
2022/04/05 01:23:46;;;;;;;3.3;2.3;;;;;;;;;;;;;
2022/04/05 01:26:12;;;;;;;2.8;2.5;;;;;;;;;;;;;
2022/04/05 01:28:37;;;;;;;3.8;2.5;;;;;;;;;;;;;
2022/04/05 01:31:02;;;;;;;3.9;2.9;;;;;;;;;;;;;
2022/04/05 01:33:27;;;;;;;4.3;3;;;;;;;;;;;;;
2022/04/05 01:35:52;;;;;;;4;2.7;;;;;;;;;;;;;
2022/04/05 01:38:18;;;;;;;5;3.1;;;;;;;;;;;;;
2022/04/05 01:40:43;;;;;;;2.8;2.5;;;;;;;;;;;;;
2022/04/05 01:43:09;;;;;;;3.7;2.2;;;;;;;;;;;;;
2022/04/05 01:45:35;;;;;;;2.6;1.9;;;;;;;;;;;;;
2022/04/05 01:48:00;;;;;;;2.3;1.8;;;;;;;;;;;;;
2022/04/05 01:50:25;;;;;;;2.1;1.9;;;;;;;;;;;;;
2022/04/05 01:52:52;;;;;;;2.3;1.5;;;;;;;;;;;;;
2022/04/05 01:55:17;;;;;;;1.5;1.4;;;;;;;;;;;;;
2022/04/05 01:57:43;;;;;;;1.6;1.5;;;;;;;;;;;;;
2022/04/05 02:00:14;;;;;;;1.5;1.4;;;;;;;;;;;;;
2022/04/05 02:02:33;;;;;;;1.9;1.6;;;;;;;;;;;;;
2022/04/05 02:04:58;;;;;;;2;1.8;;;;;;;;;;;;;
2022/04/05 02:07:23;;;;;;;1.6;1.5;;;;;;;;;;;;;
2022/04/05 02:09:49;;;;;;;2.8;1.9;;;;;;;;;;;;;
2022/04/05 02:12:14;;;;;;;3.8;2.4;;;;;;;;;;;;;
2022/04/05 02:14:39;;;;;;;3.4;2.7;;;;;;;;;;;;;
2022/04/05 02:17:06;;;;;;;3.2;2.4;;;;;;;;;;;;;
2022/04/05 02:19:31;;;;;;;3.9;2.6;;;;;;;;;;;;;
2022/04/05 02:21:57;;;;;;;3.4;2.5;;;;;;;;;;;;;
2022/04/05 02:24:21;;;;;;;3.5;2.4;;;;;;;;;;;;;
2022/04/05 02:26:48;;;;;;;2.5;2.3;;;;;;;;;;;;;
2022/04/05 02:29:13;;;;;;;4.2;2.3;;;;;;;;;;;;;
2022/04/05 02:31:38;;;;;;;2.7;1.7;;;;;;;;;;;;;
2022/04/05 02:34:03;;;;;;;2.1;1.7;;;;;;;;;;;;;
2022/04/05 02:36:32;;;;;;;3.3;1.9;;;;;;;;;;;;;
2022/04/05 02:38:57;;;;;;;2.1;1.9;;;;;;;;;;;;;
2022/04/05 02:41:23;;;;;;;2;1.7;;;;;;;;;;;;;
2022/04/05 02:43:48;;;;;;;2.6;1.8;;;;;;;;;;;;;
2022/04/05 02:46:14;;;;;;;2.9;1.9;;;;;;;;;;;;;
2022/04/05 02:48:43;;;;;;;2.8;1.9;;;;;;;;;;;;;
2022/04/05 02:51:05;;;;;;;2.9;1.7;;;;;;;;;;;;;
2022/04/05 02:53:30;;;;;;;2;1.5;;;;;;;;;;;;;
2022/04/05 02:55:55;;;;;;;3;1.9;;;;;;;;;;;;;
2022/04/05 02:58:21;;;;;;;2.6;1.9;;;;;;;;;;;;;
2022/04/05 03:00:46;;;;;;;3.1;1.8;;;;;;;;;;;;;
2022/04/05 03:03:11;;;;;;;1.6;1.5;;;;;;;;;;;;;
2022/04/05 03:05:37;;;;;;;2.5;1.8;;;;;;;;;;;;;
2022/04/05 03:08:03;;;;;;;1.8;1.5;;;;;;;;;;;;;
2022/04/05 03:10:29;;;;;;;1.8;1.5;;;;;;;;;;;;;
2022/04/05 03:12:53;;;;;;;1.8;1.2;;;;;;;;;;;;;
2022/04/05 03:15:19;;;;;;;2.2;1.6;;;;;;;;;;;;;
2022/04/05 03:17:45;;;;;;;3.1;1.7;;;;;;;;;;;;;
2022/04/05 03:20:12;;;;;;;4.9;3.1;;;;;;;;;;;;;
2022/04/05 03:22:37;;;;;;;8.8;4.5;;;;;;;;;;;;;
2022/04/05 03:25:02;;;;;;;7.2;3.6;;;;;;;;;;;;;
2022/04/05 03:27:28;;;;;;;6.1;3.4;;;;;;;;;;;;;
2022/04/05 03:30:14;;;;;;;4.6;3;;;;;;;;;;;;;
2022/04/05 03:32:49;;;;;;;5.1;3.1;;;;;;;;;;;;;
2022/04/05 03:35:16;;;;;;;7.5;2.9;;;;;;;;;;;;;
2022/04/05 03:37:41;;;;;;;3.8;2.3;;;;;;;;;;;;;
2022/04/05 03:40:12;;;;;;;3.9;2.4;;;;;;;;;;;;;
2022/04/05 03:42:36;;;;;;;4.2;2.6;;;;;;;;;;;;;
2022/04/05 03:45:02;;;;;;;2.6;2.4;;;;;;;;;;;;;
2022/04/05 03:47:28;;;;;;;3.9;2.4;;;;;;;;;;;;;
2022/04/05 03:49:54;;;;;;;3.3;2.6;;;;;;;;;;;;;
2022/04/05 03:52:19;;;;;;;3.3;2.6;;;;;;;;;;;;;
2022/04/05 03:54:44;;;;;;;6;3;;;;;;;;;;;;;
2022/04/05 03:57:09;;;;;;;4.1;2.5;;;;;;;;;;;;;
2022/04/05 03:59:48;;;;;;;3.6;2.8;;;;;;;;;;;;;
2022/04/05 04:02:36;;;;;;;3.5;2.4;;;;;;;4.36;79.76172;931.3759;;;;
2022/04/05 04:05:00;;;;;;;4.6;2.6;;;;;;;4.33;79.24902;931.5535;;;;
2022/04/05 04:07:29;;;;;;;6.8;2.9;;;;;;;4.43;79.41406;931.4581;;;;
2022/04/05 04:09:55;;;;;;;4.6;2.8;;;;;;;4.38;79.83301;931.452;;;;
2022/04/05 04:12:20;;;;;;;3.7;2.7;;;;;;;4.43;79.68555;931.4102;;;;
2022/04/05 04:18:39;;;;;;;3.2;2.3;;;;;;;4.29;79.26465;931.4454;;;;
2022/04/05 04:21:04;;;;;;;5.3;3.2;;;;;;;4.37;79.50293;931.3746;;;;
2022/04/05 04:23:30;;;;;;;5.3;2.9;;;;;;;4.42;79.96387;931.4525;;;;
2022/04/05 04:25:56;;;;;;;9.3;4.5;;;;;;;4.5;79.99023;931.4163;;;;
2022/04/05 04:28:23;;;;;;;7.2;5.4;;;;;;;4.64;79.40723;931.4611;;;;
2022/04/05 04:30:48;;;;;;;5;3.2;;;;;;;4.65;79.74707;931.433;;;;
2022/04/05 04:33:15;;;;;;;4.7;3.3;;;;;;;4.65;79.78125;931.4061;;;;
2022/04/05 04:35:40;;;;;;;6.1;3.3;;;;;;;4.57;79.9248;931.4783;;;;
2022/04/05 04:38:09;;;;;;;5.6;3;;;;;;;4.58;80.63477;931.4525;;;;
2022/04/05 04:40:34;;;;;;;6.5;2.8;;;;;;;4.71;80.23145;931.5233;;;;
2022/04/05 04:43:04;;;;;;;4.6;2.5;;;;;;;4.72;79.9082;931.4724;;;;
2022/04/05 04:45:36;;;;;;;4;2.4;;;;;;;4.68;80.18164;931.4266;;;;
2022/04/05 04:48:06;;;;;;;5.7;3.4;;;;;;;4.67;79.53809;931.442;;;;
2022/04/05 05:03:21;;;;;;;5.5;4.5;;;;;;;4.68;78.5127;931.3894;;;;
2022/04/05 05:05:48;;;;;;;11;4.6;;;;;;;4.79;78.20605;931.397;;;;
2022/04/05 05:08:13;;;;;;;13;4.3;;;;;;;4.91;77.38477;931.3911;;;;
2022/04/05 05:10:41;;;;;;;6.2;3.1;;;;;;;4.91;76.73047;931.354;;;;
2022/04/05 05:13:06;;;;;;;7.8;4.1;;;;;;;4.98;76.42773;931.4295;;;;
2022/04/05 05:15:44;;;;;;;8.9;3.8;;;;;;;4.95;76.72754;931.4542;;;;
2022/04/05 05:18:17;;;;;;;11.5;5.8;;;;;;;4.9;77.56445;931.4493;;;;
2022/04/05 05:20:48;;;;;;;9.2;5.5;;;;;;;5.01;77.77441;931.4295;;;;
2022/04/05 05:23:18;;;;;;;9.3;5.7;;;;;;;4.95;78.10254;931.4408;;;;
2022/04/05 05:25:49;;;;;;;3.7;3.1;;;;;;;4.98;77.73535;931.4886;;;;
2022/04/05 05:28:17;;;;;;;5.1;2.7;;;;;;;5.1;76.77734;931.5386;;;;
2022/04/05 05:30:42;;;;;;;8.2;2.9;;;;;;;5.11;76.83398;931.4069;;;;
2022/04/05 05:33:09;;;;;;;4;1.9;;;;;;;5.21;76.25391;931.454;;;;
2022/04/05 05:38:05;;;;;;;4.8;2.6;;;;;;;5.33;76.33301;931.4625;;;;
2022/04/05 05:40:29;;;;;;;4.6;2.4;;;;;;;5.3;75.49219;931.473;;;;
2022/04/05 05:42:57;;;;;;;6.4;2.4;;;;;;;5.41;75.24023;931.5012;;;;
2022/04/05 05:45:22;;;;;;;14.9;3.8;;;;;;;5.53;74.54004;931.5215;;;;
2022/04/05 05:47:47;;;;;;;10.5;3;;;;;;;5.6;73.81836;931.5031;;;;
2022/04/05 05:52:48;;;;;;;11.1;3.2;;;;;;;5.64;73.29492;931.5602;;;;
2022/04/05 05:55:17;;;;;;;4.7;2.3;;;;;;;5.75;72.83984;931.5516;;;;
2022/04/05 05:57:42;;;;;;;2.4;1.6;;;;;;;5.8;72.02246;931.5737;;;;
2022/04/05 06:00:09;;;;;;;6.6;2.7;;;;;;;5.92;71.50195;931.5336;;;;
2022/04/05 06:02:34;;;;;;;8.3;2.8;;;;;;;5.93;72.27148;931.4595;;;;
2022/04/05 06:05:03;;;;;;;4.4;2.7;;;;;;;6.01;71.41504;931.5195;;;;
2022/04/05 06:07:34;;;;;;;5;2.8;;;;;;;6.08;70.51172;931.4653;;;;
2022/04/05 06:09:58;;;;;;;5.5;2.9;;;;;;;6.16;70.8418;931.4871;;;;
2022/04/05 06:12:25;;;;;;;9.3;4;;;;;;;6.28;70.79395;931.6384;;;;
2022/04/05 06:14:50;;;;;;;5.6;3.3;;;;;;;6.34;70.86035;931.5151;;;;
2022/04/05 06:17:18;;;;;;;4.1;2.4;;;;;;;6.32;71.89648;931.6121;;;;
2022/04/05 06:19:44;;;;;;;3.1;2.2;;;;;;;6.42;70.61426;931.689;;;;
2022/04/05 06:22:08;;;;;;;2.8;2.2;;;;;;;6.52;71.5918;931.6414;;;;
2022/04/05 06:24:33;;;;;;;3.6;2.2;;;;;;;6.6;71.61621;931.7476;;;;
2022/04/05 06:26:58;;;;;;;4.5;2.6;;;;;;;6.68;72.52441;931.6533;;;;
2022/04/05 06:29:24;;;;;;;9.5;5.6;;;;;;;6.52;73.05078;931.783;;;;
2022/04/05 06:31:49;;;;;;;5.4;4.2;;;;;;;6.62;73.6543;931.8549;;;;
2022/04/05 06:34:15;;;;;;;6;4.1;;;;;;;6.72;73.89844;931.8025;;;;
2022/04/05 06:36:40;;;;;;;4.5;3.1;;;;;;;6.93;72.50684;931.7207;;;;
2022/04/05 06:39:10;;;;;;;4.9;3.5;;;;;;;6.94;72.37402;931.8396;;;;
2022/04/05 06:41:39;;;;;;;2.7;2.2;;;;;;;6.92;73.25293;931.7697;;;;
2022/04/05 06:44:04;;;;;;;2.9;2.2;;;;;;;6.98;73.20898;931.8425;;;;
2022/04/05 06:46:33;;;;;;;4.9;3.3;;;;;;;6.98;74.1582;931.8361;;;;
2022/04/05 06:48:58;;;;;;;2.8;1.9;;;;;;;6.99;74.6709;931.8284;;;;
2022/04/05 06:51:25;;;;;;;2.7;1.6;;;;;;;7.08;75.75;931.8701;;;;
2022/04/05 06:53:50;;;;;;;1.8;1.6;;;;;;;7.14;76.20313;931.8225;;;;
2022/04/05 06:56:21;;;;;;;2.5;2.1;;;;;;;7.25;75.4873;931.9144;;;;
2022/04/05 06:58:43;;;;;;;2.1;1.8;;;;;;;7.27;75.97754;931.8457;;;;
2022/04/05 07:01:10;;;;;;;2.9;2.2;;;;;;;7.28;75.93262;931.8552;;;;
2022/04/05 07:03:35;;;;;;;1.7;1.6;;;;;;;7.35;75.07227;931.9455;;;;
2022/04/05 07:07:34;;;;;;;2.9;1.6;;;;;;;7.31;77.40234;931.9372;;;;
2022/04/05 07:09:57;;;;;;;3.5;2.2;;;;;;;7.35;78.24609;931.8948;;;;
2022/04/05 07:12:26;;;;;;;3.8;2.8;;;;;;;7.48;78.59961;931.9734;;;;
2022/04/05 07:14:56;;;;;;;4.5;3.8;;;;;;;7.48;79.75586;931.8586;;;;
2022/04/05 07:17:21;;;;;;;8.8;6.7;;;;;;;7.63;78.48926;931.7517;;;;
2022/04/05 07:19:48;;;;;;;5.7;5.1;;;;;;;7.74;79.11035;931.9208;;;;
2022/04/05 07:22:13;;;;;;;3.3;2.6;;;;;;;7.66;79.00488;931.897;;;;
2022/04/05 07:24:38;;;;;;;4.2;3.5;;;;;;;7.88;77.7207;931.9034;;;;
2022/04/05 07:27:04;;;;;;;3.5;2.9;;;;;;;8.06;77.53613;931.853;;;;
2022/04/05 07:29:29;;;;;;;3.6;3.2;;;;;;;7.94;78.25098;931.8769;;;;
2022/04/05 07:31:58;;;;;;;1.5;1.3;;;;;;;7.89;77.63086;931.8552;;;;
2022/04/05 07:34:22;;;;;;;1.4;1.3;;;;;;;8.03;74.75;931.8685;;;;
2022/04/05 07:37:02;;;;;;;3;1.9;;;;;;;8.06;71.63281;931.8784;;;;
2022/04/05 07:39:31;;;;;;;5.6;2.1;;;;;;;8.34;74.41699;931.8922;;;;
2022/04/05 07:41:57;;;;;;;2.5;1.6;;;;;;;8.47;73.10938;931.8569;;;;
2022/04/05 07:44:26;;;;;;;2.2;1.7;;;;;;;8.61;72.72266;931.7919;;;;
2022/04/05 07:46:51;;;;;;;4.2;1.8;;;;;;;8.77;73.07031;931.7869;;;;
2022/04/05 07:49:19;;;;;;;3.4;1.9;;;;;;;9.03;73.15918;931.7974;;;;
2022/04/05 07:51:47;;;;;;;3.3;1.9;;;;;;;9.2;73.81445;931.8116;;;;
2022/04/05 07:54:12;;;;;;;2.7;2;;;;;;;9.34;73.54297;931.7918;;;;
2022/04/05 07:56:40;;;;;;;3.1;1.1;;;;;;;9.08;69.5498;931.7921;;;;
2022/04/05 07:59:05;;;;;;;2.7;0.9;;;;;;;9.13;69.2627;931.7955;;;;
2022/04/05 08:01:43;;;;;;;2.8;1.5;;;;;;;9.2;70.44434;931.8132;;;;
2022/04/05 08:04:04;;;;;;;2.2;1.4;;;;;;;9.41;68.20215;931.8686;;;;
2022/04/05 08:06:31;;;;;;;2.8;1.3;;;;;;;9.23;66.81934;931.8629;;;;
2022/04/05 08:08:58;;;;;;;2.6;1.3;;;;;;;9.1;70.16797;931.9089;;;;
2022/04/05 08:11:23;;;;;;;1.8;1.2;;;;;;;9.13;68.19238;931.8908;;;;
2022/04/05 08:13:50;;;;;;;3;1.9;;;;;;;9.45;69.59766;931.9426;;;;
2022/04/05 08:16:15;;;;;;;1.1;1;;;;;;;9.56;69.57129;931.9191;;;;
2022/04/05 08:18:41;;;;;;;1.3;0.9;;;;;;;9.68;67.75586;932.0795;;;;
2022/04/05 08:21:06;;;;;;;1.1;1;;;;;;;9.92;69.2627;932.0446;;;;
2022/04/05 08:23:34;;;;;;;0.7;0.7;;;;;;;9.5;69.17383;932.0128;;;;
2022/04/05 08:25:59;;;;;;;1.6;1;;;;;;;9.67;70.76074;932.155;;;;
2022/04/05 08:28:26;;;;;;;0.8;0.8;;;;;;;10;69.35645;932.1328;;;;
2022/04/05 08:30:51;;;;;;;0.9;0.8;;;;;;;10.29;69.10449;932.13;;;;
2022/04/05 08:33:17;;;;;;;1.3;0.8;;;;;;;10.55;65.33398;931.9894;;;;
2022/04/05 08:35:42;;;;;;;1.7;0.9;;;;;;;10.62;65.91406;932.0844;;;;
2022/04/05 08:38:10;;;;;;;2.1;1.3;;;;;;;10.88;69.49707;932.0907;;;;
2022/04/05 08:40:34;;;;;;;1.6;1.1;;;;;;;11.13;69.43457;932.1071;;;;
2022/04/05 08:43:01;;;;;;;0.8;0.8;;;;;;;11.03;65.31641;932.1066;;;;
2022/04/05 08:45:26;;;;;;;1.1;0.9;;;;;;;11.17;67.57617;932.0744;;;;
2022/04/05 08:47:56;;;;;;;1.3;1;;;;;;;11.44;66.29297;932.0947;;;;
2022/04/05 08:50:26;;;;;;;0.8;0.8;;;;;;;11.52;66.05176;932.0712;;;;
2022/04/05 08:52:51;;;;;;;1.2;0.8;;;;;;;11;65.10449;932.0538;;;;
2022/04/05 08:55:17;;;;;;;1.2;0.8;;;;;;;11.12;66.97461;932.0466;;;;
2022/04/05 08:57:45;;;;;;;1;0.9;;;;;;;11.24;67.31348;932.0449;;;;
2022/04/05 09:00:19;;;;;;;1.6;0.7;;;;;;;11.52;66.96875;932.0577;;;;
2022/04/05 09:02:42;;;;;;;1.5;0.7;;;;;;;11.42;65.03027;932.1354;;;;
2022/04/05 09:05:07;;;;;;;0.9;0.8;;;;;;;11.15;67.31055;932.0967;;;;
2022/04/05 09:07:32;;;;;;;1;0.8;;;;;;;11.4;68.88281;932.0594;;;;
2022/04/05 09:10:00;;;;;;;0.6;0.6;;;;;;;11.4;66.2168;932.0539;;;;
2022/04/05 09:12:28;;;;;;;0.9;0.8;;;;;;;11.22;65.43457;932.033;;;;
2022/04/05 09:14:50;;;;;;;0.9;0.9;;;;;;;11.03;66.84668;931.9816;;;;
2022/04/05 09:17:15;;;;;;;0.7;0.7;;;;;;;11.42;68.0166;931.9504;;;;
2022/04/05 10:33:31;;;;;;;1;0.5;;;;;;;11.56;67.96875;932.0471;;;;
2022/04/05 10:36:02;;;;;;;1;0.5;;;;;;;11.78;69.98535;932.087;;;;
2022/04/05 10:38:27;;;;;;;1.1;0.8;;;;;;;11.9;69.03027;932.0925;;;;
2022/04/05 10:40:57;;;;;;;0.5;0.5;;;;;;;12.07;66.74316;931.988;;;;
2022/04/05 10:43:23;;;;;;;0.9;0.7;;;;;;;12.43;68.15039;931.9661;;;;
2022/04/05 10:45:54;;;;;;;3.1;0.8;;;;;;;12.79;67.25781;931.892;;;;
2022/04/05 10:48:27;;;;;;;1.1;0.5;;;;;;;13.02;63.77832;931.9504;;;;
2022/04/05 10:50:49;;;;;;;1;0.6;;;;;;;12.91;65.96387;931.8833;;;;
2022/04/05 10:53:14;;;;;;;0.4;0.3;;;;;;;13.65;63.38574;931.8788;;;;
2022/04/05 10:55:39;;;;;;;0.2;0.2;;;;;;;14.14;58.7041;931.847;;;;
2022/04/05 10:58:04;;;;;;;0.4;0.4;;;;;;;13.91;60.04199;931.7963;;;;
2022/04/05 11:00:34;;;;;;;0.4;0.4;;;;;;;14.01;61.27539;931.8198;;;;
2022/04/05 11:02:59;;;;;;;1.7;0.4;;;;;;;14.48;61.05371;931.8228;;;;
2022/04/05 11:05:35;;;;;;;0.6;0.5;;;;;;;14.8;59.35645;931.861;;;;
2022/04/05 11:07:54;;;;;;;0.4;0.3;;;;;;;13.57;62.12207;931.8427;;;;
2022/04/05 11:10:21;;;;;;;1.1;1;;;;;;;13.82;62.43359;931.8745;;;;
2022/04/05 11:12:46;;;;;;;0.9;0.6;;;;;;;13.59;62.96387;931.8176;;;;
2022/04/05 11:15:15;;;;;;;0.9;0.9;;;;;;;14.5;62.85449;931.8215;;;;
2022/04/05 11:17:40;;;;;;;0.4;0.4;;;;;;;15.01;60.07813;931.8311;;;;
2022/04/05 11:20:15;;;;;;;0.5;0.5;;;;;;;14.53;59.8623;931.8539;;;;
2022/04/05 11:22:40;;;;;;;1;0.6;;;;;;;15.03;61.29199;931.88;;;;
2022/04/05 11:25:06;;;;;;;0.7;0.4;;;;;;;15.29;60.24414;931.8049;;;;
2022/04/05 11:27:30;;;;;;;0.9;0.6;;;;;;;15.51;60.5166;931.8064;;;;
2022/04/05 11:29:56;;;;;;;0.8;0.7;;;;;;;14.97;61.65234;931.8414;;;;
2022/04/05 11:32:26;;;;;;;2.4;0.9;;;;;;;13.63;65.03027;931.9454;;;;
2022/04/05 11:34:56;;;;;;;1.7;0.5;;;;;;;13.26;66.65039;931.8069;;;;
2022/04/05 11:37:21;;;;;;;0.8;0.5;;;;;;;13.68;67.48633;931.8639;;;;
2022/04/05 11:39:46;;;;;;;0.7;0.7;;;;;;;13.97;65.78223;931.7924;;;;
2022/04/05 11:42:14;;;;;;;0.6;0.4;;;;;;;14.03;64.85645;931.8318;;;;
2022/04/05 11:44:39;;;;;;;0.5;0.4;;;;;;;14.35;66.21973;931.8569;;;;
2022/04/05 11:47:07;;;;;;;0.4;0.4;;;;;;;14.65;62.8877;931.8019;;;;
2022/04/05 11:49:32;;;;;;;0.7;0.5;;;;;;;14.58;65.72363;931.8836;;;;
2022/04/05 11:52:00;;;;;;;0.7;0.5;;;;;;;14.72;61.05176;931.8375;;;;
2022/04/05 11:54:27;;;;;;;0.4;0.4;;;;;;;13.79;64.62695;931.8505;;;;
2022/04/05 11:56:54;;;;;;;0.7;0.7;;;;;;;13.99;65.51953;931.8153;;;;
2022/04/05 11:59:19;;;;;;;1.4;0.9;;;;;;;14.24;65.19922;931.7523;;;;
2022/04/05 12:01:49;;;;;;;0.9;0.5;;;;;;;14.17;65.58203;931.9163;;;;
2022/04/05 12:04:12;;;;;;;0.2;0.2;;;;;;;14.16;61.34375;931.9052;;;;
2022/04/05 12:06:42;;;;;;;0.5;0.5;;;;;;;14.15;64.89941;931.7651;;;;
2022/04/05 12:09:07;;;;;;;0.5;0.5;;;;;;;13.97;63.92871;931.7427;;;;
2022/04/05 12:11:36;;;;;;;2.1;0.9;;;;;;;14.58;66.2998;931.7803;;;;
2022/04/05 12:14:00;;;;;;;1;0.6;;;;;;;15.03;62.20313;931.637;;;;
2022/04/05 12:16:29;;;;;;;0.7;0.4;;;;;;;14.89;62.34473;931.673;;;;
2022/04/05 12:18:55;;;;;;;0.4;0.4;;;;;;;15.48;62.58008;931.6786;;;;
2022/04/05 12:21:21;;;;;;;0.4;0.3;;;;;;;15.63;61.65332;931.653;;;;
2022/04/05 12:23:48;;;;;;;0.5;0.4;;;;;;;15.17;62.21289;931.6865;;;;
2022/04/05 12:26:13;;;;;;;0.6;0.5;;;;;;;15;63.26074;931.5322;;;;
2022/04/05 12:28:41;;;;;;;0.3;0.3;;;;;;;16.09;59.20996;931.5938;;;;
2022/04/05 12:31:06;;;;;;;0.8;0.5;;;;;;;16.96;55.30566;931.551;;;;
2022/04/05 12:33:34;;;;;;;0.3;0.3;;;;;;;18.43;51.28223;931.5648;;;;
2022/04/05 12:35:59;;;;;;;0.8;0.6;;;;;;;18.94;50.17773;931.5901;;;;
2022/04/05 12:38:27;;;;;;;0.6;0.4;;;;;;;17.88;52.31055;931.557;;;;
2022/04/05 12:40:52;;;;;;;1;0.4;;;;;;;18;52.04395;931.47;;;;
2022/04/05 12:43:19;;;;;;;0.4;0.3;;;;;;;17.35;47.60742;931.4897;;;;
2022/04/05 12:45:48;;;;;;;0.1;0.1;;;;;;;17.32;47.1748;931.4697;;;;
2022/04/05 12:48:18;;;;;;;0.4;0.2;;;;;;;16.1;49.76172;931.4684;;;;
2022/04/05 12:50:49;;;;;;;0;0;;;;;;;15.6;50.20215;931.4511;;;;
2022/04/05 12:53:15;;;;;;;0.1;0.1;;;;;;;16.07;50.34863;931.3943;;;;
2022/04/05 12:55:39;;;;;;;0.1;0.1;;;;;;;16.1;48.90723;931.3719;;;;
2022/04/05 12:58:04;;;;;;;0.1;0.1;;;;;;;15.77;49.27539;931.3594;;;;
2022/04/05 13:00:30;;;;;;;0.1;0.1;;;;;;;15.4;51.46094;931.4161;;;;
2022/04/05 13:02:55;;;;;;;0.1;0.1;;;;;;;15.08;51.23926;931.4068;;;;
2022/04/05 13:07:47;;;;;;;0.1;0.1;;;;;;;15.51;50.76855;931.2673;;;;
2022/04/05 13:10:17;;;;;;;1.1;0.4;;;;;;;16.32;48.87305;931.2578;;;;
2022/04/05 13:12:45;;;;;;;10;1.5;;;;;;;16.52;48.35156;931.2317;;;;
2022/04/05 13:15:10;;;;;;;0.1;0.1;;;;;;;16.79;46.52734;931.252;;;;
2022/04/05 13:17:44;;;;;;;0.1;0.1;;;;;;;16.98;47.32422;931.1516;;;;
2022/04/05 13:20:15;;;;;;;1.4;0.3;;;;;;;17.33;47.23438;931.2343;;;;
2022/04/05 13:22:48;;;;;;;0.2;0.2;;;;;;;17.69;46.56445;931.1889;;;;
2022/04/05 13:25:13;;;;;;;0.1;0.1;;;;;;;17.67;46.16797;931.2767;;;;
2022/04/05 13:27:41;;;;;;;0.4;0;;;;;;;17.46;46.67969;931.1956;;;;
2022/04/05 13:30:06;;;;;;;0.4;0.2;;;;;;;17.55;48.62695;931.1664;;;;
2022/04/05 13:32:37;;;;;;;0.5;0.2;;;;;;;18.05;47.09082;931.1077;;;;
2022/04/05 13:35:00;;;;;;;0.3;0.1;;;;;;;18.48;44.55566;931.1617;;;;
2022/04/05 13:37:32;;;;;;;0.4;0.1;;;;;;;17.93;45.74316;931.1941;;;;
2022/04/05 13:40:00;;;;;;;0.3;0.1;;;;;;;17.15;45.71973;931.1602;;;;
2022/04/05 13:42:25;;;;;;;1.6;0.2;;;;;;;16.32;47.41406;931.1406;;;;
2022/04/05 13:44:53;;;;;;;1.4;0.2;;;;;;;15.58;50.77637;931.1342;;;;
2022/04/05 13:47:18;;;;;;;3.4;1.1;;;;;;;15.62;52.94141;931.2183;;;;
2022/04/05 13:49:45;;;;;;;2.6;0.6;;;;;;;15.74;51.57031;931.1947;;;;
2022/04/05 13:52:10;;;;;;;0.4;0.4;;;;;;;15.82;50.58496;931.15;;;;
2022/04/05 13:54:39;;;;;;;1.3;0.6;;;;;;;15.7;52.89453;931.1875;;;;
2022/04/05 13:57:02;;;;;;;1.1;0.9;;;;;;;16.13;52.89941;931.1409;;;;
2022/04/05 14:00:13;;;;;;;0.1;0.1;;;;;;;16.03;51.59277;931.1438;;;;
2022/04/05 14:02:39;;;;;;;0.4;0.3;;;;;;;15.69;50.91699;931.1189;;;;
2022/04/05 14:05:04;;;;;;;0.5;0.2;;;;;;;15.59;53.03125;931.1993;;;;
2022/04/05 14:07:31;;;;;;;1;0.2;;;;;;;15.56;52.61133;931.1074;;;;
2022/04/05 14:09:56;;;;;;;0.1;0.1;;;;;;;15.6;52.14258;931.0811;;;;
2022/04/05 14:12:24;;;;;;;0.7;0.3;;;;;;;15.62;51.32422;931.1276;;;;
2022/04/05 14:14:49;;;;;;;0.8;0.5;;;;;;;15.63;52.50391;931.1105;;;;
2022/04/05 14:17:20;;;;;;;0.3;0.1;;;;;;;15.28;51.67676;931.0535;;;;
2022/04/05 14:19:45;;;;;;;0.9;0.4;;;;;;;15.35;52.21582;931.0609;;;;
2022/04/05 14:22:14;;;;;;;0.3;0.3;;;;;;;15.42;53.18359;931.0539;;;;
2022/04/05 14:24:39;;;;;;;2.2;0.4;;;;;;;15.44;53.09375;931.0778;;;;
2022/04/05 14:27:04;;;;;;;6.3;1.2;;;;;;;15.44;53.02344;931.0667;;;;
2022/04/05 14:29:29;;;;;;;1.6;0.4;;;;;;;15.56;52.27539;931.0705;;;;
2022/04/05 14:31:54;;;;;;;2.6;0.3;;;;;;;15.68;53.20313;931.1376;;;;
2022/04/05 14:34:22;;;;;;;2.4;0.7;;;;;;;15.89;54.16504;931.1066;;;;
2022/04/05 14:36:47;;;;;;;0.8;0.2;;;;;;;15.82;51.18555;931.0312;;;;
2022/04/05 14:39:14;;;;;;;0.2;0.2;;;;;;;15.49;52.83398;931.0287;;;;
2022/04/05 14:41:39;;;;;;;0.2;0.2;;;;;;;15.29;54.8877;931.0228;;;;
2022/04/05 14:44:08;;;;;;;0.2;0.2;;;;;;;15.14;55.56055;931.0753;;;;
2022/04/05 14:46:33;;;;;;;0.1;0.1;;;;;;;15.27;51.69824;930.9937;;;;
2022/04/05 14:49:02;;;;;;;0.1;0.1;;;;;;;14.99;53.37402;931.0114;;;;
2022/04/05 14:51:26;;;;;;;2.1;0.5;;;;;;;15.09;54.59766;930.9551;;;;
2022/04/05 14:53:53;;;;;;;1.4;0.3;;;;;;;15.07;52.95605;931.0117;;;;
2022/04/05 14:56:17;;;;;;;0.3;0.2;;;;;;;15.17;52.69043;931.0314;;;;
2022/04/05 14:58:45;;;;;;;1.8;1;;;;;;;14.76;56.76953;931.053;;;;
2022/04/05 15:01:10;;;;;;;0.5;0.4;;;;;;;14.5;59.04004;931.0815;;;;
2022/04/05 15:03:37;;;;;;;5;3.9;;;;;;;14.8;58.5625;930.9545;;;;
2022/04/05 15:06:02;;;;;;;13.2;7.1;;;;;;;14.9;57.61719;930.9922;;;;
2022/04/05 15:08:29;;;;;;;1.7;0.8;;;;;;;14.66;58.85449;931.0115;;;;
2022/04/05 15:10:54;;;;;;;1;0.7;;;;;;;14.44;59.04395;931.0631;;;;
2022/04/05 15:13:21;;;;;;;2.2;0.7;;;;;;;13.73;60.91406;931.1144;;;;
2022/04/05 15:15:50;;;;;;;3.8;1.2;;;;;;;13.77;61.4834;931.1244;;;;
2022/04/05 15:18:25;;;;;;;2.9;1.6;;;;;;;13.8;60.95801;931.0126;;;;
2022/04/05 15:20:55;;;;;;;2.6;0.9;;;;;;;14.13;59.85449;931.0273;;;;
2022/04/05 15:23:20;;;;;;;2.7;1.1;;;;;;;14.12;60.06055;931.0146;;;;
2022/04/05 15:25:47;;;;;;;0.8;0.6;;;;;;;13.7;61.11719;930.986;;;;
2022/04/05 15:28:12;;;;;;;1.7;1;;;;;;;13.89;61.44336;930.9172;;;;
2022/04/05 15:30:42;;;;;;;1.2;0.9;;;;;;;14.04;62.32813;930.9464;;;;
2022/04/05 15:33:12;;;;;;;1;0.7;;;;;;;14.31;60.69727;930.9822;;;;
2022/04/05 15:35:37;;;;;;;1.5;0.7;;;;;;;14.58;59.77637;930.9653;;;;
2022/04/05 15:38:02;;;;;;;0.9;0.4;;;;;;;14.48;60.39648;930.9783;;;;
2022/04/05 15:40:32;;;;;;;0.5;0.5;;;;;;;14.67;59.87109;930.9617;;;;
2022/04/05 15:42:57;;;;;;;1.5;0.6;;;;;;;14.39;59.02637;930.9705;;;;
2022/04/05 15:45:26;;;;;;;1.1;0.8;;;;;;;14.31;59.66016;931.0463;;;;
2022/04/05 15:47:51;;;;;;;8.7;2.3;;;;;;;14.18;60.89551;931.0642;;;;
2022/04/05 15:50:16;;;;;;;5.8;2.6;;;;;;;14.11;61.40625;930.9892;;;;
2022/04/05 15:52:48;;;;;;;2.3;1.3;;;;;;;14.35;60.5293;931.0105;;;;
2022/04/05 15:55:14;;;;;;;2.4;1.4;;;;;;;14.15;59.62695;930.9638;;;;
2022/04/05 15:57:39;;;;;;;3.3;1;;;;;;;14.08;60.94043;931.0002;;;;
2022/04/05 16:00:04;;;;;;;3.4;1.2;;;;;;;13.96;60.85547;931.0265;;;;
2022/04/05 16:02:29;;;;;;;2.5;1.2;;;;;;;13.98;61.26074;931.007;;;;
2022/04/05 16:04:56;;;;;;;1.7;1.1;;;;;;;14.02;60.79395;930.9964;;;;
2022/04/05 16:07:21;;;;;;;2.2;1.6;;;;;;;13.95;60.33496;931.0331;;;;
2022/04/05 16:09:48;;;;;;;2.1;1.4;;;;;;;13.81;60.62793;931.07;;;;
2022/04/05 16:12:13;;;;;;;0.7;0.6;;;;;;;13.53;61.89844;931.0506;;;;
2022/04/05 16:14:38;;;;;;;1.4;1;;;;;;;13.64;62.38477;931.0733;;;;
2022/04/05 16:17:06;;;;;;;1.3;1.2;;;;;;;13.68;60.64258;931.0424;;;;
2022/04/05 16:19:32;;;;;;;7.4;2.2;;;;;;;13.78;61.40527;931.0153;;;;
2022/04/05 16:21:59;;;;;;;5.1;1.7;;;;;;;13.55;62.06152;931.0934;;;;
2022/04/05 16:24:26;;;;;;;4.3;1.6;;;;;;;13.33;63.14453;931.1017;;;;
2022/04/05 16:26:51;;;;;;;0.7;0.7;;;;;;;13.07;63.33691;931.0644;;;;
2022/04/05 16:29:20;;;;;;;1.2;1.1;;;;;;;13.02;64.15625;931.0833;;;;
2022/04/05 16:31:44;;;;;;;2.2;0.8;;;;;;;13.02;64.03027;931.0458;;;;
2022/04/05 16:34:11;;;;;;;2.2;1.4;;;;;;;13.03;63.49121;931.048;;;;
2022/04/05 16:36:37;;;;;;;4.9;1.7;;;;;;;12.95;65.07715;931.1461;;;;
2022/04/05 16:39:04;;;;;;;3.8;1.1;;;;;;;13.02;64.70703;931.1145;;;;
2022/04/05 16:41:29;;;;;;;0.5;0.5;;;;;;;12.84;64.00293;931.113;;;;
2022/04/05 16:43:56;;;;;;;0.9;0.7;;;;;;;12.94;65.5791;931.1678;;;;
2022/04/05 16:46:22;;;;;;;0.9;0.8;;;;;;;12.84;65.2998;931.0858;;;;
2022/04/05 16:48:46;;;;;;;0.9;0.7;;;;;;;12.82;65.43652;931.07;;;;
2022/04/05 16:51:14;;;;;;;1.7;0.8;;;;;;;12.84;65.40332;931.1091;;;;
2022/04/05 16:53:39;;;;;;;3.4;1.8;;;;;;;12.84;65.43945;931.1497;;;;
2022/04/05 16:56:07;;;;;;;9;5.1;;;;;;;12.91;64.98926;931.153;;;;
2022/04/05 16:58:32;;;;;;;2.1;1.5;;;;;;;12.86;64.99414;931.1462;;;;
2022/04/05 17:01:01;;;;;;;2.1;1.2;;;;;;;12.95;64.16992;931.2092;;;;
2022/04/05 17:03:26;;;;;;;4.3;1.7;;;;;;;12.98;64.77051;931.2161;;;;
2022/04/05 17:05:57;;;;;;;2.1;1.3;;;;;;;13;64.69434;931.1806;;;;
2022/04/05 17:08:26;;;;;;;6.4;1.8;;;;;;;12.92;65.46191;931.1992;;;;
2022/04/05 17:10:51;;;;;;;2.3;1.3;;;;;;;12.8;65.71973;931.2737;;;;
2022/04/05 17:13:20;;;;;;;1.2;0.9;;;;;;;12.84;66.03516;931.2336;;;;
2022/04/05 17:15:45;;;;;;;2.6;1.1;;;;;;;12.77;65.2793;931.2213;;;;
2022/04/05 17:18:13;;;;;;;3.1;1.4;;;;;;;12.48;66.6582;931.1975;;;;
2022/04/05 17:20:38;;;;;;;1.8;0.9;;;;;;;12.6;67.69727;931.2665;;;;